Time;durP1;ratioP1;P1;durP2;ratioP2;P2;SDS_P1;SDS_P2;PMS_P1;PMS_P2;Temp;Humidity;BMP_temperature;BMP_pressure;BME280_temperature;BME280_humidity;BME280_pressure;Samples;Min_cycle;Max_cycle;Signal;HPM_P1;HPM_P2
2022/06/12 00:00:58;;;;;;;6.10;2.47;;;19.70;51.50;;;;;;5055740;28;20424;-73
2022/06/12 00:03:26;;;;;;;7.07;2.55;;;19.70;51.70;;;;;;5058430;28;20025;-73
2022/06/12 00:05:55;;;;;;;8.55;2.78;;;19.60;51.50;;;;;;5056873;28;20127;-73
2022/06/12 00:08:22;;;;;;;7.30;3.72;;;19.60;51.70;;;;;;5057793;28;20419;-73
2022/06/12 00:10:52;;;;;;;4.75;2.50;;;19.60;51.80;;;;;;5058849;28;20086;-73
2022/06/12 00:13:33;;;;;;;5.28;2.28;;;19.50;51.60;;;;;;5038316;28;20021;-73
2022/06/12 00:16:00;;;;;;;8.63;3.25;;;19.40;51.50;;;;;;5058173;28;20021;-73
2022/06/12 00:18:26;;;;;;;6.50;2.75;;;19.50;51.80;;;;;;5059825;28;20045;-73
2022/06/12 00:21:10;;;;;;;7.20;2.58;;;19.40;51.60;;;;;;5058265;28;20038;-72
2022/06/12 00:23:37;;;;;;;6.63;2.50;;;19.40;51.80;;;;;;5057123;28;20094;-73
2022/06/12 00:26:04;;;;;;;9.10;2.40;;;19.30;51.70;;;;;;5054325;28;20024;-73
2022/06/12 00:28:30;;;;;;;8.75;2.85;;;19.30;51.70;;;;;;5058320;28;20236;-73
2022/06/12 00:30:56;;;;;;;5.57;2.67;;;19.30;51.80;;;;;;5057327;28;20131;-73
2022/06/12 00:33:22;;;;;;;7.57;2.80;;;19.30;52.00;;;;;;5039369;28;20120;-73
2022/06/12 00:35:48;;;;;;;5.20;2.10;;;19.20;51.80;;;;;;5057336;28;20314;-74
2022/06/12 00:38:14;;;;;;;8.60;2.30;;;19.20;51.90;;;;;;5060857;28;20016;-74
2022/06/12 00:40:40;;;;;;;7.15;2.88;;;19.20;52.00;;;;;;5057548;28;20036;-74
2022/06/12 00:43:07;;;;;;;4.82;2.65;;;19.20;52.10;;;;;;5059552;28;20140;-73
2022/06/12 00:45:51;;;;;;;5.10;2.55;;;19.10;52.00;;;;;;5056999;28;20036;-73
2022/06/12 00:48:25;;;;;;;8.40;2.95;;;19.10;52.10;;;;;;5048437;28;20047;-74
2022/06/12 00:51:03;;;;;;;7.38;2.38;;;19.00;52.00;;;;;;5066072;28;20386;-74
2022/06/12 00:53:39;;;;;;;4.18;1.80;;;19.00;52.10;;;;;;5066464;28;20028;-74
2022/06/12 00:56:17;;;;;;;7.05;2.42;;;19.00;52.10;;;;;;5049744;28;20048;-73
2022/06/12 00:58:51;;;;;;;7.38;2.05;;;19.00;52.30;;;;;;5083071;28;20036;-73
2022/06/12 01:01:43;;;;;;;6.47;2.30;;;18.90;52.10;;;;;;5065409;28;20044;-73
2022/06/12 01:07:07;;;;;;;6.30;2.95;;;18.80;52.10;;;;;;5061933;28;20039;-73
2022/06/12 01:09:38;;;;;;;8.73;2.90;;;18.80;52.20;;;;;;5062756;28;20031;-73
2022/06/12 01:12:10;;;;;;;6.70;2.55;;;18.80;52.30;;;;;;5055717;28;20082;-73
2022/06/12 01:14:41;;;;;;;6.55;2.47;;;18.80;52.40;;;;;;5039610;28;20028;-73
2022/06/12 01:17:10;;;;;;;7.93;2.47;;;18.70;52.30;;;;;;5042637;28;20049;-74
2022/06/12 01:19:38;;;;;;;7.75;2.78;;;18.70;52.30;;;;;;5064583;28;20052;-73
2022/06/12 01:22:27;;;;;;;6.10;2.10;;;18.70;52.40;;;;;;5058114;28;20039;-73
2022/06/12 01:25:14;;;;;;;8.20;3.33;;;18.70;52.60;;;;;;5054543;28;20511;-74
2022/06/12 01:28:03;;;;;;;6.15;1.95;;;18.70;52.60;;;;;;5058622;28;20025;-73
2022/06/12 01:30:43;;;;;;;7.30;2.20;;;18.60;52.60;;;;;;5057158;28;20107;-73
2022/06/12 01:33:30;;;;;;;6.43;2.38;;;18.60;52.50;;;;;;5060092;28;20021;-72
2022/06/12 01:36:20;;;;;;;6.68;2.75;;;18.60;53.30;;;;;;5033682;28;20400;-73
2022/06/12 01:39:19;;;;;;;6.22;2.03;;;18.60;52.80;;;;;;5044613;28;20494;-73
2022/06/12 01:42:27;;;;;;;7.65;2.63;;;18.50;52.60;;;;;;5057378;28;20021;-74
2022/06/12 01:45:16;;;;;;;6.35;2.45;;;18.50;52.70;;;;;;5057539;28;20504;-73
2022/06/12 01:48:02;;;;;;;6.00;2.20;;;18.50;52.70;;;;;;5061019;28;20037;-73
2022/06/12 01:50:32;;;;;;;8.65;3.45;;;18.40;52.60;;;;;;5062463;28;20111;-73
2022/06/12 01:53:20;;;;;;;5.57;2.60;;;18.40;52.60;;;;;;5064171;28;20028;-72
2022/06/12 01:56:19;;;;;;;7.30;2.70;;;18.40;52.80;;;;;;5029471;28;20727;-73
2022/06/12 01:59:05;;;;;;;9.07;3.03;;;18.40;53.00;;;;;;5065207;28;20376;-72
2022/06/12 02:01:40;;;;;;;7.00;2.38;;;18.30;52.80;;;;;;5063288;28;20676;-73
2022/06/12 02:04:32;;;;;;;6.63;2.30;;;18.30;52.80;;;;;;5064918;28;20029;-73
2022/06/12 02:07:09;;;;;;;7.70;2.97;;;18.30;53.00;;;;;;5064264;28;20032;-73
2022/06/12 02:09:42;;;;;;;4.63;1.88;;;18.20;52.90;;;;;;5063670;28;20037;-73
2022/06/12 02:15:03;;;;;;;7.78;3.03;;;18.20;53.00;;;;;;5064885;28;20035;-73
2022/06/12 02:17:35;;;;;;;5.40;2.28;;;18.10;52.90;;;;;;5065036;28;20309;-73
2022/06/12 02:20:06;;;;;;;6.25;3.10;;;18.10;53.00;;;;;;5046877;28;20035;-74
2022/06/12 02:22:33;;;;;;;6.15;2.00;;;18.00;53.00;;;;;;5063158;28;20028;-73
2022/06/12 02:25:09;;;;;;;7.32;2.83;;;18.00;53.00;;;;;;5064819;28;20029;-73
2022/06/12 02:28:08;;;;;;;6.20;2.67;;;18.00;53.20;;;;;;5046822;28;20036;-72
2022/06/12 02:30:38;;;;;;;5.80;2.70;;;18.00;53.30;;;;;;5053097;28;20037;-73
2022/06/12 02:33:13;;;;;;;7.00;2.58;;;18.00;53.20;;;;;;5044747;28;20036;-73
2022/06/12 02:35:47;;;;;;;6.82;2.75;;;18.00;53.40;;;;;;5064667;28;20059;-73
2022/06/12 02:38:28;;;;;;;8.82;2.35;;;18.00;53.40;;;;;;5064547;28;20063;-73
2022/06/12 02:41:01;;;;;;;12.18;3.35;;;18.00;53.40;;;;;;5062778;28;20709;-73
2022/06/12 02:43:32;;;;;;;10.25;2.55;;;18.00;53.40;;;;;;5065894;28;20058;-73
2022/06/12 02:46:30;;;;;;;8.85;2.60;;;18.00;53.50;;;;;;5061078;28;20411;-74
2022/06/12 02:48:56;;;;;;;6.80;2.00;;;18.00;53.60;;;;;;5057939;28;20055;-74
2022/06/12 02:51:22;;;;;;;6.45;2.50;;;18.00;53.50;;;;;;5075278;28;20029;-72
2022/06/12 02:53:50;;;;;;;6.20;2.05;;;17.90;53.50;;;;;;5072876;28;20047;-72
2022/06/12 02:56:35;;;;;;;6.55;2.13;;;17.90;53.60;;;;;;5061693;28;20036;-73
2022/06/12 02:59:16;;;;;;;4.53;1.85;;;17.90;53.70;;;;;;5062803;28;20037;-73
2022/06/12 03:02:00;;;;;;;7.25;2.22;;;17.90;53.70;;;;;;5072401;28;20119;-71
2022/06/12 03:04:50;;;;;;;8.77;2.45;;;17.80;53.60;;;;;;5062987;28;20415;-74
2022/06/12 03:07:16;;;;;;;11.90;3.88;;;17.80;53.60;;;;;;5055214;28;20131;-73
2022/06/12 03:09:42;;;;;;;8.85;3.13;;;17.80;53.60;;;;;;5076933;28;20036;-73
2022/06/12 03:12:09;;;;;;;8.98;2.60;;;17.80;53.70;;;;;;5063731;28;20025;-73
2022/06/12 03:14:35;;;;;;;6.82;2.30;;;17.80;53.80;;;;;;5067617;28;20705;-73
2022/06/12 03:17:02;;;;;;;10.77;2.38;;;17.70;53.60;;;;;;5068292;28;20052;-73
2022/06/12 03:19:31;;;;;;;7.45;2.20;;;17.80;53.90;;;;;;5070229;28;20028;-74
2022/06/12 03:22:27;;;;;;;10.93;3.35;;;17.70;53.80;;;;;;5080099;28;20465;-71
2022/06/12 03:25:08;;;;;;;6.60;1.95;;;17.70;54.00;;;;;;5061595;28;20039;-73
2022/06/12 03:27:37;;;;;;;5.07;2.47;;;17.70;53.90;;;;;;5049826;28;20035;-72
2022/06/12 03:30:06;;;;;;;8.27;2.70;;;17.70;53.90;;;;;;5059588;28;20061;-73
2022/06/12 03:32:51;;;;;;;4.85;2.30;;;17.70;54.10;;;;;;5069753;28;20033;-72
2022/06/12 03:35:57;;;;;;;6.53;2.13;;;17.60;53.90;;;;;;5050173;28;20448;-73
2022/06/12 03:38:26;;;;;;;7.40;2.88;;;17.60;54.00;;;;;;5057708;28;20059;-74
2022/06/12 03:41:13;;;;;;;7.93;3.42;;;17.60;53.90;;;;;;5060072;28;20040;-73
2022/06/12 03:44:01;;;;;;;9.25;2.58;;;17.60;54.10;;;;;;5070435;28;20031;-74
2022/06/12 03:46:30;;;;;;;6.38;2.92;;;17.60;54.10;;;;;;5072216;28;20036;-73
2022/06/12 03:49:15;;;;;;;8.57;2.92;;;17.50;54.00;;;;;;5056837;28;20103;-72
2022/06/12 03:51:54;;;;;;;8.82;2.92;;;17.50;54.00;;;;;;5078213;28;20515;-72
2022/06/12 03:54:42;;;;;;;6.88;2.47;;;17.50;54.20;;;;;;5071116;28;20060;-73
2022/06/12 04:00:17;;;;;;;7.75;2.45;;;17.50;54.30;;;;;;5058191;28;20041;-73
2022/06/12 04:03:29;;;;;;;6.30;2.35;;;17.40;54.20;;;;;;5079414;28;20944;-73
2022/06/12 04:06:03;;;;;;;7.95;3.50;;;17.40;54.20;;;;;;5057465;28;20040;-73
2022/06/12 04:08:44;;;;;;;8.77;2.78;;;17.40;54.20;;;;;;5031798;28;20067;-74
2022/06/12 04:11:13;;;;;;;8.02;2.85;;;17.40;54.40;;;;;;5075041;28;20115;-73
2022/06/12 04:13:41;;;;;;;9.93;3.35;;;17.40;54.90;;;;;;5065286;28;20032;-73
2022/06/12 04:16:26;;;;;;;7.70;2.53;;;17.40;54.40;;;;;;5067153;28;20046;-73
2022/06/12 04:18:53;;;;;;;11.48;3.72;;;17.40;54.60;;;;;;5066221;28;20082;-73
2022/06/12 04:21:33;;;;;;;7.80;2.95;;;17.40;54.60;;;;;;5060126;28;20051;-73
2022/06/12 04:24:30;;;;;;;7.47;2.50;;;17.40;54.70;;;;;;5066347;28;20028;-73
2022/06/12 04:27:04;;;;;;;7.95;4.18;;;17.30;54.50;;;;;;5040307;28;20040;-73
2022/06/12 04:29:34;;;;;;;11.27;2.88;;;17.30;54.50;;;;;;5050105;28;20064;-72
2022/06/12 04:32:03;;;;;;;7.55;2.75;;;17.30;54.60;;;;;;5046169;28;20100;-73
2022/06/12 04:34:33;;;;;;;8.10;3.53;;;17.30;54.60;;;;;;5066819;28;20033;-74
2022/06/12 04:37:03;;;;;;;9.35;2.97;;;17.30;54.70;;;;;;5060436;28;20044;-74
2022/06/12 04:39:33;;;;;;;8.18;2.85;;;17.30;54.70;;;;;;5067070;28;20368;-74
2022/06/12 04:42:00;;;;;;;9.32;3.22;;;17.30;54.80;;;;;;5077148;28;20033;-72
2022/06/12 04:44:28;;;;;;;8.73;3.30;;;17.30;54.80;;;;;;5064685;28;20048;-71
2022/06/12 04:46:56;;;;;;;10.48;3.08;;;17.30;54.80;;;;;;5069401;28;20135;-73
2022/06/12 04:49:25;;;;;;;12.10;4.10;;;17.30;54.80;;;;;;5060945;28;20135;-73
2022/06/12 04:51:54;;;;;;;7.93;2.65;;;17.40;55.10;;;;;;5061656;28;20028;-72
2022/06/12 04:54:23;;;;;;;7.10;2.55;;;17.40;55.10;;;;;;5045383;28;20029;-74
2022/06/12 04:56:49;;;;;;;8.85;3.25;;;17.40;55.10;;;;;;5061097;28;20250;-73
2022/06/12 04:59:17;;;;;;;6.82;2.78;;;17.40;55.10;;;;;;5060747;28;20078;-73
2022/06/12 05:01:43;;;;;;;6.32;2.83;;;17.40;55.70;;;;;;5058470;28;20380;-72
2022/06/12 05:04:10;;;;;;;9.20;4.20;;;17.40;55.10;;;;;;5058438;28;20032;-73
2022/06/12 05:06:37;;;;;;;18.10;5.00;;;17.40;55.10;;;;;;5059793;28;20108;-73
2022/06/12 05:09:05;;;;;;;11.10;3.28;;;17.40;55.10;;;;;;5063190;28;20079;-72
2022/06/12 05:11:32;;;;;;;8.82;3.47;;;17.50;55.30;;;;;;5053524;28;20043;-73
2022/06/12 05:13:58;;;;;;;8.30;2.85;;;17.50;55.30;;;;;;5048467;28;20036;-73
2022/06/12 05:16:34;;;;;;;7.25;3.25;;;17.50;55.20;;;;;;5062450;28;20103;-74
2022/06/12 05:19:02;;;;;;;9.73;2.75;;;17.60;55.50;;;;;;5060517;28;20040;-73
2022/06/12 05:21:30;;;;;;;9.38;3.72;;;17.60;55.40;;;;;;5059749;28;20032;-73
2022/06/12 05:23:57;;;;;;;10.30;3.33;;;17.70;55.50;;;;;;5040782;28;20036;-73
2022/06/12 05:26:26;;;;;;;8.82;3.67;;;17.70;55.40;;;;;;5057732;28;20134;-74
2022/06/12 05:28:52;;;;;;;7.45;3.15;;;17.70;55.30;;;;;;5063697;28;20200;-73
2022/06/12 05:31:18;;;;;;;7.63;3.08;;;17.70;55.20;;;;;;5064170;28;20127;-73
2022/06/12 05:33:45;;;;;;;4.80;3.10;;;17.80;55.50;;;;;;5062862;28;20515;-73
2022/06/12 05:36:14;;;;;;;6.53;2.63;;;17.80;55.50;;;;;;5027818;28;20036;-73
2022/06/12 05:38:43;;;;;;;10.25;3.85;;;17.80;55.50;;;;;;5047407;28;20021;-76
2022/06/12 05:41:10;;;;;;;11.18;4.32;;;17.80;55.50;;;;;;5048285;28;20480;-74
2022/06/12 05:43:36;;;;;;;7.93;2.75;;;17.80;55.40;;;;;;5064479;28;20213;-73
2022/06/12 05:46:03;;;;;;;9.35;3.83;;;17.90;55.60;;;;;;5039988;28;20020;-74
2022/06/12 05:48:29;;;;;;;6.63;3.03;;;17.90;55.60;;;;;;5059547;28;20120;-74
2022/06/12 05:50:58;;;;;;;9.27;3.22;;;17.90;55.60;;;;;;5040127;28;20107;-74
2022/06/12 05:53:27;;;;;;;9.45;3.65;;;17.90;55.70;;;;;;5060242;28;20040;-73
2022/06/12 05:55:55;;;;;;;9.50;4.30;;;17.90;55.70;;;;;;5041140;28;20117;-73
2022/06/12 05:58:25;;;;;;;9.63;3.90;;;17.90;55.70;;;;;;5059124;28;20052;-73
2022/06/12 06:00:53;;;;;;;10.00;4.18;;;17.90;55.60;;;;;;5060457;28;20031;-73
2022/06/12 06:03:19;;;;;;;9.30;3.90;;;18.00;55.80;;;;;;5058063;28;20032;-75
2022/06/12 06:05:48;;;;;;;9.63;3.80;;;18.00;55.70;;;;;;5061932;28;20083;-73
2022/06/12 06:08:15;;;;;;;10.15;4.30;;;18.10;55.80;;;;;;5046144;28;20033;-72
2022/06/12 06:10:42;;;;;;;7.95;3.60;;;18.10;55.80;;;;;;5061526;28;20557;-73
2022/06/12 06:13:09;;;;;;;8.68;3.40;;;18.20;55.90;;;;;;5063572;28;20032;-73
2022/06/12 06:15:34;;;;;;;7.75;3.50;;;18.30;55.90;;;;;;5062123;28;20036;-73
2022/06/12 06:18:01;;;;;;;8.90;3.90;;;18.30;55.70;;;;;;5047113;28;20468;-73
2022/06/12 06:20:30;;;;;;;7.97;3.25;;;18.40;55.80;;;;;;5061461;28;20087;-74
2022/06/12 06:22:57;;;;;;;9.25;3.92;;;18.60;55.90;;;;;;5060134;28;20043;-72
2022/06/12 06:25:25;;;;;;;11.57;4.22;;;18.80;55.90;;;;;;5056845;28;20025;-73
2022/06/12 06:27:51;;;;;;;9.88;3.88;;;19.00;55.80;;;;;;5045878;28;20059;-72
2022/06/12 06:30:19;;;;;;;7.32;4.22;;;19.20;55.80;;;;;;5064487;28;20016;-74
2022/06/12 06:32:46;;;;;;;12.95;4.70;;;19.30;55.80;;;;;;5047925;28;20136;-73
2022/06/12 06:35:14;;;;;;;12.00;4.68;;;19.30;55.60;;;;;;5041458;28;20021;-73
2022/06/12 06:37:43;;;;;;;10.80;4.93;;;19.40;55.70;;;;;;5058306;28;20099;-72
2022/06/12 06:40:12;;;;;;;7.55;3.30;;;19.50;55.70;;;;;;5058655;28;20027;-72
2022/06/12 06:42:38;;;;;;;9.70;4.28;;;19.60;55.80;;;;;;5065214;28;20025;-73
2022/06/12 06:47:50;;;;;;;7.82;4.28;;;20.10;55.60;;;;;;5056286;28;20136;-73
2022/06/12 06:50:20;;;;;;;7.47;4.32;;;20.50;55.60;;;;;;5040053;28;20076;-73
2022/06/12 06:52:46;;;;;;;10.68;4.85;;;21.10;55.50;;;;;;5041871;28;20037;-72
2022/06/12 06:55:12;;;;;;;8.57;4.07;;;21.70;55.30;;;;;;5025394;28;20025;-73
2022/06/12 06:57:41;;;;;;;12.40;6.22;;;22.10;54.80;;;;;;5043850;28;20079;-73
2022/06/12 07:00:10;;;;;;;9.65;4.90;;;22.50;55.00;;;;;;5042395;28;20021;-74
2022/06/12 07:02:36;;;;;;;8.82;3.97;;;22.90;55.00;;;;;;5045529;28;20115;-74
2022/06/12 07:05:03;;;;;;;11.18;4.43;;;23.40;54.90;;;;;;5026603;28;20560;-73
2022/06/12 07:07:28;;;;;;;10.35;5.22;;;23.90;54.70;;;;;;5042331;28;20029;-74
2022/06/12 07:09:54;;;;;;;8.77;4.63;;;24.50;54.80;;;;;;5042709;28;20491;-77
2022/06/12 07:12:21;;;;;;;12.10;6.50;;;25.10;54.40;;;;;;5032609;28;20448;-75
2022/06/12 07:14:47;;;;;;;11.35;6.45;;;25.50;53.40;;;;;;5023215;28;20036;-75
2022/06/12 07:17:13;;;;;;;13.32;6.30;;;25.60;52.50;;;;;;5043636;28;20037;-75
2022/06/12 07:19:39;;;;;;;10.23;5.43;;;25.30;52.10;;;;;;5044101;28;20014;-75
2022/06/12 07:22:05;;;;;;;14.73;5.80;;;25.00;52.20;;;;;;5048348;28;20668;-76
2022/06/12 07:24:32;;;;;;;14.23;5.63;;;24.50;51.70;;;;;;5025936;28;20044;-75
2022/06/12 07:26:58;;;;;;;14.15;5.20;;;24.10;51.60;;;;;;5039329;28;20084;-74
2022/06/12 07:29:25;;;;;;;12.40;5.45;;;23.70;51.50;;;;;;5034387;28;20037;-75
2022/06/12 07:31:51;;;;;;;18.42;6.03;;;23.30;51.30;;;;;;5055770;28;20029;-75
2022/06/12 07:34:18;;;;;;;14.25;4.57;;;23.00;51.30;;;;;;5062118;28;20102;-76
2022/06/12 07:36:47;;;;;;;13.32;4.68;;;22.90;51.50;;;;;;5059771;28;20092;-74
2022/06/12 07:39:18;;;;;;;16.20;3.90;;;23.00;51.60;;;;;;5060030;28;20244;-74
2022/06/12 07:41:47;;;;;;;10.10;4.22;;;23.60;51.60;;;;;;5028296;28;20036;-77
2022/06/12 07:44:14;;;;;;;12.00;3.97;;;24.20;51.20;;;;;;5052369;28;20085;-75
2022/06/12 07:46:40;;;;;;;9.57;3.92;;;25.00;51.00;;;;;;5034199;28;20120;-76
2022/06/12 07:49:06;;;;;;;11.95;4.40;;;25.60;49.70;;;;;;5047364;28;20147;-75
2022/06/12 07:51:32;;;;;;;10.55;3.58;;;26.10;48.80;;;;;;5059507;28;20039;-74
2022/06/12 07:53:58;;;;;;;11.05;3.55;;;26.60;48.00;;;;;;5058989;28;20067;-73
2022/06/12 07:56:25;;;;;;;9.90;3.75;;;26.80;47.50;;;;;;5061693;28;20102;-73
2022/06/12 07:58:51;;;;;;;13.45;4.15;;;27.10;46.80;;;;;;5062501;28;20039;-73
2022/06/12 08:01:21;;;;;;;9.13;3.67;;;27.50;46.00;;;;;;5036693;28;20155;-74
2022/06/12 08:03:48;;;;;;;12.95;3.42;;;27.60;45.60;;;;;;5037207;28;20028;-77
2022/06/12 08:06:14;;;;;;;6.30;3.45;;;27.50;45.90;;;;;;5055846;28;20025;-76
2022/06/12 08:08:40;;;;;;;9.82;3.10;;;27.30;46.30;;;;;;5056362;28;20407;-76
2022/06/12 08:11:06;;;;;;;13.85;3.83;;;27.10;46.80;;;;;;5055368;28;20117;-76
2022/06/12 08:13:32;;;;;;;12.50;3.58;;;26.80;47.10;;;;;;5054848;28;20591;-74
2022/06/12 08:15:58;;;;;;;9.68;4.13;;;26.60;47.30;;;;;;5056137;28;20052;-76
2022/06/12 08:18:24;;;;;;;10.90;3.47;;;26.50;47.50;;;;;;5037584;28;20033;-80
2022/06/12 08:20:54;;;;;;;10.13;3.60;;;26.30;47.30;;;;;;5041772;28;20417;-75
2022/06/12 08:23:33;;;;;;;10.20;3.63;;;26.20;47.30;;;;;;5056554;28;20032;-75
2022/06/12 08:26:15;;;;;;;7.55;3.53;;;26.20;47.10;;;;;;5052412;28;20055;-76
2022/06/12 08:28:49;;;;;;;8.98;3.47;;;26.10;47.00;;;;;;5055703;28;20133;-75
2022/06/12 08:31:21;;;;;;;8.35;2.55;;;26.00;47.00;;;;;;5056907;28;20060;-77
2022/06/12 08:33:51;;;;;;;9.18;3.10;;;25.90;46.90;;;;;;5036237;28;20024;-75
2022/06/12 08:36:19;;;;;;;12.35;3.63;;;25.70;47.00;;;;;;5053794;28;20047;-77
2022/06/12 08:38:47;;;;;;;10.60;3.55;;;25.50;47.00;;;;;;5056797;28;20039;-78
2022/06/12 08:41:27;;;;;;;9.48;3.38;;;25.50;47.20;;;;;;5056570;28;20076;-76
2022/06/12 08:44:21;;;;;;;11.85;4.53;;;25.50;47.10;;;;;;5055242;28;20362;-75
2022/06/12 08:46:54;;;;;;;11.68;3.72;;;25.50;46.70;;;;;;5032648;28;20026;-75
2022/06/12 08:49:36;;;;;;;10.23;3.42;;;25.60;46.70;;;;;;5035957;28;20080;-76
2022/06/12 08:52:14;;;;;;;6.63;3.20;;;25.60;46.50;;;;;;5051706;28;20029;-74
2022/06/12 08:55:12;;;;;;;10.50;3.97;;;25.50;46.30;;;;;;5035101;28;20036;-75
2022/06/12 08:57:52;;;;;;;7.18;2.97;;;25.50;45.90;;;;;;5053396;28;20057;-75
2022/06/12 09:00:29;;;;;;;8.57;4.65;;;25.70;45.90;;;;;;5053664;28;20028;-79
2022/06/12 09:02:55;;;;;;;6.82;2.72;;;25.70;45.70;;;;;;5060699;28;20076;-87
2022/06/12 09:05:26;;;;;;;8.70;3.30;;;25.70;45.60;;;;;;5039849;28;20293;-84
2022/06/12 09:08:02;;;;;;;6.20;2.67;;;25.80;45.40;;;;;;5054682;28;20078;-84
2022/06/12 09:10:42;;;;;;;10.00;3.17;;;25.90;45.20;;;;;;5052680;28;20033;-86
2022/06/12 09:13:29;;;;;;;7.85;3.28;;;26.00;45.00;;;;;;5043497;28;20556;-91
2022/06/12 09:16:10;;;;;;;9.95;3.20;;;26.10;44.80;;;;;;5053387;28;20025;-75
2022/06/12 09:18:50;;;;;;;6.60;2.45;;;26.30;44.60;;;;;;5055873;28;20036;-80
2022/06/12 09:21:29;;;;;;;6.88;3.00;;;26.40;44.30;;;;;;5051322;28;20032;-79
2022/06/12 09:24:17;;;;;;;7.97;2.70;;;26.50;43.80;;;;;;5053207;28;20039;-76
2022/06/12 09:26:53;;;;;;;6.55;3.10;;;26.60;43.50;;;;;;5057896;28;20127;-76
2022/06/12 09:29:28;;;;;;;6.68;2.80;;;26.60;43.30;;;;;;5054645;28;20043;-76
2022/06/12 09:32:14;;;;;;;6.93;2.55;;;26.60;42.90;;;;;;5049118;28;20169;-74
2022/06/12 09:34:44;;;;;;;9.18;2.80;;;26.70;42.80;;;;;;5050006;28;20035;-74
2022/06/12 09:40:16;;;;;;;10.40;2.78;;;26.50;42.90;;;;;;5053693;28;20099;-76
2022/06/12 09:43:17;;;;;;;7.50;3.17;;;26.30;43.10;;;;;;5049598;28;20553;-76
2022/06/12 09:45:54;;;;;;;9.77;3.08;;;26.30;43.20;;;;;;5053213;28;20013;-75
2022/06/12 09:48:38;;;;;;;7.97;3.40;;;26.30;42.90;;;;;;5053945;28;20083;-76
2022/06/12 09:51:27;;;;;;;7.22;3.00;;;26.30;42.90;;;;;;5057242;28;20036;-75
2022/06/12 09:54:05;;;;;;;9.77;3.63;;;26.40;43.00;;;;;;5056686;28;20106;-77
2022/06/12 09:56:47;;;;;;;7.72;2.70;;;26.40;43.00;;;;;;5040988;28;20044;-75
2022/06/12 09:59:20;;;;;;;8.15;3.33;;;26.60;42.70;;;;;;5057277;28;20025;-75
2022/06/12 10:01:49;;;;;;;8.45;2.88;;;26.50;42.50;;;;;;5056265;28;20035;-76
2022/06/12 10:04:45;;;;;;;9.95;3.47;;;26.40;42.60;;;;;;5054458;28;20227;-73
2022/06/12 10:07:18;;;;;;;9.88;3.33;;;26.40;42.30;;;;;;5037680;28;20037;-76
2022/06/12 10:09:51;;;;;;;8.50;2.80;;;26.50;42.30;;;;;;5056490;28;20037;-75
2022/06/12 10:12:20;;;;;;;;;;;26.50;42.10;;;;;;5055307;28;20028;-78
2022/06/12 10:15:01;;;;;;;11.43;3.63;;;26.40;42.20;;;;;;5044885;28;20038;-78
2022/06/12 10:17:51;;;;;;;9.13;3.33;;;26.30;42.20;;;;;;5024000;28;20056;-79
2022/06/12 10:20:23;;;;;;;9.90;3.10;;;26.20;42.10;;;;;;5042481;28;20093;-77
2022/06/12 10:22:52;;;;;;;8.20;2.83;;;26.10;42.50;;;;;;5062007;28;20088;-78
2022/06/12 10:25:27;;;;;;;7.68;3.28;;;26.00;42.60;;;;;;5060289;28;20066;-76
2022/06/12 10:28:01;;;;;;;9.75;3.17;;;26.20;42.50;;;;;;5043040;28;20017;-76
2022/06/12 10:30:44;;;;;;;8.82;2.95;;;26.40;42.10;;;;;;5061066;28;20028;-75
2022/06/12 10:33:23;;;;;;;12.55;3.50;;;26.70;41.60;;;;;;5059278;28;20106;-76
2022/06/12 10:36:35;;;;;;;6.78;2.92;;;27.00;41.10;;;;;;5026843;28;20036;-75
2022/06/12 10:39:14;;;;;;;13.75;4.22;;;27.20;40.50;;;;;;5041163;28;20032;-76
2022/06/12 10:41:52;;;;;;;9.50;3.42;;;27.50;40.40;;;;;;5059847;28;20791;-74
2022/06/12 10:44:29;;;;;;;12.25;3.28;;;27.60;40.30;;;;;;5064220;28;20048;-76
2022/06/12 10:46:55;;;;;;;7.95;2.85;;;27.60;39.80;;;;;;5063075;28;20488;-75
2022/06/12 10:49:23;;;;;;;8.25;3.13;;;27.40;40.00;;;;;;5045576;28;20392;-73
2022/06/12 10:51:51;;;;;;;8.02;2.88;;;27.20;40.00;;;;;;5042378;28;20098;-75
2022/06/12 10:54:20;;;;;;;11.93;3.78;;;27.00;40.20;;;;;;5038975;28;20448;-74
2022/06/12 10:57:24;;;;;;;7.90;2.83;;;27.00;40.20;;;;;;5020251;28;20032;-73
2022/06/12 11:00:02;;;;;;;8.98;3.10;;;27.20;39.90;;;;;;5019567;28;20481;-74
2022/06/12 11:02:56;;;;;;;9.43;2.92;;;27.50;39.90;;;;;;5036035;28;20485;-75
2022/06/12 11:05:40;;;;;;;;;;;27.60;39.50;;;;;;5014292;28;20128;-73
2022/06/12 11:08:13;;;;;;;6.97;2.92;;;27.50;40.00;;;;;;5021791;28;19999;-77
2022/06/12 11:10:44;;;;;;;7.00;2.97;;;27.40;40.00;;;;;;5038003;28;20608;-73
2022/06/12 11:13:29;;;;;;;10.00;3.97;;;27.30;40.10;;;;;;5016093;28;20037;-74
2022/06/12 11:16:15;;;;;;;8.77;3.63;;;27.30;39.90;;;;;;5038019;28;20033;-73
2022/06/12 11:18:58;;;;;;;10.77;3.63;;;27.40;40.10;;;;;;5036030;28;20067;-73
2022/06/12 11:22:01;;;;;;;9.63;3.73;;;27.60;39.80;;;;;;5037315;28;20044;-74
2022/06/12 11:24:55;;;;;;;7.65;3.13;;;27.90;39.30;;;;;;5034963;28;20033;-74
2022/06/12 11:27:26;;;;;;;10.32;3.40;;;28.10;39.10;;;;;;5025167;28;20189;-75
2022/06/12 11:30:25;;;;;;;8.52;3.03;;;28.30;39.10;;;;;;5014777;28;20021;-73
2022/06/12 11:33:00;;;;;;;10.32;3.92;;;28.40;38.70;;;;;;5021502;28;20116;-74
2022/06/12 11:35:37;;;;;;;10.75;4.05;;;28.50;38.60;;;;;;5037549;28;20032;-74
2022/06/12 11:38:40;;;;;;;7.90;3.45;;;28.60;38.60;;;;;;5037580;28;20048;-74
2022/06/12 11:41:47;;;;;;;10.95;3.63;;;28.80;38.40;;;;;;5018973;28;20045;-73
2022/06/12 11:44:50;;;;;;;11.02;3.60;;;29.00;38.30;;;;;;5010382;28;20527;-73
2022/06/12 11:47:58;;;;;;;11.00;3.78;;;29.20;38.10;;;;;;5033759;28;20239;-72
2022/06/12 11:50:39;;;;;;;16.90;3.95;;;29.30;38.30;;;;;;5036950;28;20037;-73
2022/06/12 11:53:24;;;;;;;8.35;3.40;;;29.40;38.00;;;;;;5042346;28;20024;-77
2022/06/12 11:55:53;;;;;;;9.10;3.97;;;29.50;37.90;;;;;;5062392;28;20488;-79
2022/06/12 11:58:41;;;;;;;13.10;4.10;;;29.60;37.80;;;;;;5056654;28;20063;-79
2022/06/12 12:01:20;;;;;;;11.02;4.00;;;29.60;37.60;;;;;;5045685;28;20036;-75
2022/06/12 12:04:02;;;;;;;12.15;4.00;;;29.60;37.70;;;;;;5038710;28;20028;-73
2022/06/12 12:06:42;;;;;;;11.20;4.13;;;29.50;37.80;;;;;;5041924;28;20048;-78
2022/06/12 12:09:40;;;;;;;14.05;4.55;;;29.50;38.20;;;;;;5060670;28;20539;-81
2022/06/12 12:12:12;;;;;;;7.32;4.03;;;29.60;38.40;;;;;;5035869;28;20570;-81
2022/06/12 12:14:41;;;;;;;11.65;3.92;;;29.70;38.50;;;;;;5041717;28;20028;-80
2022/06/12 12:17:29;;;;;;;7.82;3.15;;;29.80;38.50;;;;;;5055082;28;20035;-81
2022/06/12 12:20:00;;;;;;;10.50;4.40;;;30.00;38.50;;;;;;5060058;28;20024;-79
2022/06/12 12:22:40;;;;;;;11.05;4.50;;;30.10;38.50;;;;;;5038749;28;20044;-78
2022/06/12 12:25:16;;;;;;;9.00;3.83;;;30.20;38.30;;;;;;5023551;28;20345;-80
2022/06/12 12:27:48;;;;;;;11.45;3.65;;;30.30;38.40;;;;;;5039487;28;20709;-77
2022/06/12 12:30:19;;;;;;;;;;;30.30;38.50;;;;;;5059654;28;20036;-84
2022/06/12 12:32:48;;;;;;;9.95;4.15;;;30.40;38.50;;;;;;5063695;28;19912;-76
2022/06/12 12:41:11;;;;;;;13.75;3.67;;;30.50;38.40;;;;;;5055321;28;20051;-76
2022/06/12 12:43:33;;;;;;;11.75;3.97;;;30.70;38.10;;;;;;5044596;28;20029;-76
2022/06/12 12:46:03;;;;;;;12.98;4.93;;;30.80;38.00;;;;;;5041633;28;20064;-75
2022/06/12 12:48:44;;;;;;;11.80;4.40;;;30.90;38.00;;;;;;5056651;28;20068;-74
2022/06/12 12:51:22;;;;;;;11.32;3.47;;;30.90;37.90;;;;;;5058829;28;20027;-77
2022/06/12 12:53:48;;;;;;;9.50;4.03;;;31.00;37.90;;;;;;5041950;28;20055;-76
2022/06/12 12:56:15;;;;;;;9.60;3.35;;;31.00;37.80;;;;;;5037954;28;20386;-77
2022/06/12 12:59:06;;;;;;;9.05;3.63;;;31.10;37.90;;;;;;5059662;28;20036;-75
2022/06/12 13:01:38;;;;;;;9.65;3.08;;;31.20;37.80;;;;;;5059097;28;20039;-76
2022/06/12 13:04:17;;;;;;;8.88;3.35;;;31.20;37.70;;;;;;5038707;28;20031;-76
2022/06/12 13:06:54;;;;;;;8.38;3.05;;;31.20;37.40;;;;;;5061276;28;20024;-77
2022/06/12 13:09:20;;;;;;;8.73;2.80;;;31.20;37.10;;;;;;5060264;28;20029;-76
2022/06/12 13:11:52;;;;;;;9.68;3.33;;;31.00;37.10;;;;;;5060889;28;20032;-76
2022/06/12 13:14:27;;;;;;;9.52;3.30;;;30.70;37.00;;;;;;5039444;28;20027;-76
2022/06/12 13:17:11;;;;;;;9.77;3.50;;;30.70;37.10;;;;;;5038835;28;20259;-79
2022/06/12 13:19:54;;;;;;;11.25;3.40;;;30.70;37.10;;;;;;5062228;28;20020;-79
2022/06/12 13:22:52;;;;;;;7.57;3.03;;;30.70;36.80;;;;;;5056278;28;20484;-77
2022/06/12 13:25:38;;;;;;;12.18;3.80;;;30.90;36.80;;;;;;5042182;28;20025;-76
2022/06/12 13:28:04;;;;;;;9.52;3.15;;;30.90;36.50;;;;;;5042631;28;20017;-76
2022/06/12 13:30:40;;;;;;;8.88;3.17;;;31.00;36.70;;;;;;5065399;28;20676;-76
2022/06/12 13:33:21;;;;;;;10.15;3.65;;;31.10;36.60;;;;;;5065776;28;20020;-77
2022/06/12 13:35:54;;;;;;;9.60;3.28;;;31.20;36.60;;;;;;5071517;28;20032;-78
2022/06/12 13:38:31;;;;;;;8.85;3.25;;;31.20;36.60;;;;;;5067520;28;20079;-76
2022/06/12 13:41:22;;;;;;;9.57;3.70;;;31.30;36.70;;;;;;5068931;28;20026;-77
2022/06/12 13:43:48;;;;;;;8.27;3.50;;;31.40;36.70;;;;;;5066680;28;20032;-77
2022/06/12 13:46:22;;;;;;;8.75;3.15;;;31.50;36.70;;;;;;5072078;28;20031;-77